createdAt,value
2023-04-15T00:00:58.497Z,5.18
2023-04-15T00:03:25.604Z,5.25
2023-04-15T00:05:52.274Z,5.25
2023-04-15T00:08:19.471Z,5.27
2023-04-15T00:10:46.709Z,5.23
2023-04-15T00:13:13.223Z,5.20
2023-04-15T00:15:39.564Z,5.21
2023-04-15T00:18:07.358Z,5.20
2023-04-15T00:20:34.343Z,5.18
2023-04-15T00:23:02.653Z,5.18
2023-04-15T00:25:29.336Z,5.19
2023-04-15T00:27:55.832Z,5.19
2023-04-15T00:30:22.380Z,5.20
2023-04-15T00:32:49.673Z,5.25
2023-04-15T00:35:16.508Z,5.23
2023-04-15T00:37:46.022Z,5.16
2023-04-15T00:40:14.012Z,5.17
2023-04-15T00:42:41.137Z,5.25
2023-04-15T00:45:09.230Z,5.21
2023-04-15T00:47:37.624Z,5.22
2023-04-15T00:50:04.907Z,5.24
2023-04-15T00:52:31.974Z,5.22
2023-04-15T00:54:58.961Z,5.24
2023-04-15T00:57:27.754Z,5.24
2023-04-15T00:59:55.997Z,5.22
2023-04-15T01:02:23.375Z,5.23
2023-04-15T01:04:50.614Z,5.21
2023-04-15T01:07:17.345Z,5.19
2023-04-15T01:09:43.854Z,5.20
2023-04-15T01:12:14.086Z,5.18
2023-04-15T01:14:40.503Z,5.23
2023-04-15T01:17:07.428Z,5.19
2023-04-15T01:19:34.002Z,5.22
2023-04-15T01:22:00.357Z,5.21
2023-04-15T01:24:28.186Z,5.20
2023-04-15T01:26:54.838Z,5.23
2023-04-15T01:29:21.578Z,5.20
2023-04-15T01:31:52.479Z,5.23
2023-04-15T01:34:19.558Z,5.23
2023-04-15T01:36:46.286Z,5.20
2023-04-15T01:39:13.550Z,5.21
2023-04-15T01:41:40.859Z,5.26
2023-04-15T01:44:07.360Z,5.23
2023-04-15T01:46:34.171Z,5.32
2023-04-15T01:49:00.977Z,5.31
2023-04-15T01:51:28.207Z,5.27
2023-04-15T01:53:56.867Z,5.24
2023-04-15T01:56:26.665Z,5.29
2023-04-15T01:58:53.304Z,5.25
2023-04-15T02:01:20.082Z,5.26
2023-04-15T02:03:48.061Z,5.23
2023-04-15T02:06:14.951Z,5.29
2023-04-15T02:08:41.422Z,5.24
2023-04-15T02:11:08.324Z,5.20
2023-04-15T02:13:34.722Z,5.20
2023-04-15T02:16:01.487Z,5.18
2023-04-15T02:18:27.939Z,5.20
2023-04-15T02:20:54.336Z,5.07
2023-04-15T02:23:20.699Z,5.22
2023-04-15T02:25:53.279Z,5.16
2023-04-15T02:28:21.782Z,5.18
2023-04-15T02:30:53.335Z,5.12
2023-04-15T02:33:21.277Z,5.21
2023-04-15T02:35:47.820Z,5.16
2023-04-15T02:38:16.691Z,5.23
2023-04-15T02:40:43.258Z,5.21
2023-04-15T02:43:09.690Z,5.17
2023-04-15T02:45:36.174Z,5.18
2023-04-15T02:48:06.150Z,5.13
2023-04-15T02:50:33.123Z,5.18
2023-04-15T02:53:01.171Z,5.20
2023-04-15T02:55:27.775Z,5.11
2023-04-15T02:57:54.266Z,5.09
2023-04-15T03:00:20.717Z,5.05
2023-04-15T03:02:47.479Z,5.06
2023-04-15T03:05:14.620Z,5.02
2023-04-15T03:07:41.064Z,5.05
2023-04-15T03:10:08.512Z,5.08
2023-04-15T03:12:35.059Z,5.06
2023-04-15T03:15:02.222Z,5.01
2023-04-15T03:17:28.688Z,5.01
2023-04-15T03:19:55.420Z,5.01
2023-04-15T03:22:21.957Z,5.03
2023-04-15T03:24:48.409Z,4.91
2023-04-15T03:27:14.861Z,4.88
2023-04-15T03:29:41.496Z,4.92
2023-04-15T03:32:07.937Z,4.92
2023-04-15T03:34:34.271Z,4.88
2023-04-15T03:37:00.993Z,4.77
2023-04-15T03:39:27.637Z,4.81
2023-04-15T03:41:54.148Z,4.86
2023-04-15T03:44:20.888Z,4.80
2023-04-15T03:46:47.370Z,4.79
2023-04-15T03:49:14.282Z,4.72
2023-04-15T03:51:40.753Z,4.74
2023-04-15T03:54:07.262Z,4.75
2023-04-15T03:56:33.638Z,4.78
2023-04-15T03:59:00.581Z,4.73
2023-04-15T04:01:27.156Z,4.72
2023-04-15T04:03:53.860Z,4.72
2023-04-15T04:06:20.507Z,4.65
2023-04-15T04:08:46.956Z,4.58
2023-04-15T04:11:13.698Z,4.59
2023-04-15T04:13:40.585Z,4.59
2023-04-15T04:16:07.157Z,4.59
2023-04-15T04:18:34.215Z,4.59
2023-04-15T04:21:01.104Z,4.56
2023-04-15T04:23:27.671Z,4.48
2023-04-15T04:25:54.171Z,4.55
2023-04-15T04:28:20.817Z,4.53
2023-04-15T04:30:47.373Z,4.51
2023-04-15T04:33:13.840Z,4.50
2023-04-15T04:35:40.349Z,4.45
2023-04-15T04:38:06.871Z,4.44
2023-04-15T04:40:33.536Z,4.46
2023-04-15T04:43:00.374Z,4.40
2023-04-15T04:45:27.225Z,4.38
2023-04-15T04:47:53.672Z,4.31
2023-04-15T04:50:20.451Z,4.31
2023-04-15T04:52:46.951Z,4.29
2023-04-15T04:55:13.425Z,4.35
2023-04-15T04:57:39.942Z,4.31
2023-04-15T05:00:08.960Z,4.36
2023-04-15T05:02:35.999Z,4.34
2023-04-15T05:05:02.553Z,4.30
2023-04-15T05:07:28.967Z,4.29
2023-04-15T05:09:55.509Z,4.28
2023-04-15T05:12:22.558Z,4.34
2023-04-15T05:14:49.016Z,4.31
2023-04-15T05:17:15.722Z,4.36
2023-04-15T05:19:42.194Z,4.31
2023-04-15T05:22:08.679Z,4.37
2023-04-15T05:24:35.496Z,4.34
2023-04-15T05:27:02.054Z,4.28
2023-04-15T05:29:28.575Z,4.27
2023-04-15T05:31:55.901Z,4.26
2023-04-15T05:34:22.870Z,4.20
2023-04-15T05:36:49.435Z,4.19
2023-04-15T05:39:16.108Z,4.22
2023-04-15T05:41:42.661Z,4.21
2023-04-15T05:44:09.036Z,4.16
2023-04-15T05:46:36.343Z,4.23
2023-04-15T05:49:03.096Z,4.16
2023-04-15T05:51:29.764Z,4.05
2023-04-15T05:53:56.310Z,4.10
2023-04-15T05:56:22.804Z,4.10
2023-04-15T05:58:49.861Z,4.06
2023-04-15T06:01:17.192Z,4.10
2023-04-15T06:03:43.808Z,4.17
2023-04-15T06:06:10.649Z,4.13
2023-04-15T06:08:37.229Z,4.10
2023-04-15T06:11:03.813Z,4.14
2023-04-15T06:13:30.463Z,4.12
2023-04-15T06:15:56.862Z,4.15
2023-04-15T06:18:23.390Z,4.19
2023-04-15T06:20:49.839Z,4.17
2023-04-15T06:23:16.290Z,4.09
2023-04-15T06:25:42.807Z,4.14
2023-04-15T06:28:10.231Z,4.14
2023-04-15T06:30:36.941Z,4.13
2023-04-15T06:33:05.522Z,4.22
2023-04-15T06:35:32.427Z,4.26
2023-04-15T06:37:58.984Z,4.21
2023-04-15T06:40:25.356Z,4.16
2023-04-15T06:42:52.024Z,4.16
2023-04-15T06:45:18.726Z,4.07
2023-04-15T06:47:45.499Z,4.11
2023-04-15T06:50:12.395Z,4.06
2023-04-15T06:52:38.966Z,4.12
2023-04-15T06:55:07.028Z,4.12
2023-04-15T06:57:35.052Z,4.07
2023-04-15T07:00:02.584Z,4.09
2023-04-15T07:02:29.140Z,4.10
2023-04-15T07:04:56.887Z,4.13
2023-04-15T07:07:23.284Z,4.01
2023-04-15T07:09:49.755Z,4.11
2023-04-15T07:12:16.231Z,4.11
2023-04-15T07:14:43.271Z,4.08
2023-04-15T07:17:09.767Z,4.12
2023-04-15T07:19:36.519Z,4.21
2023-04-15T07:22:02.940Z,4.25
2023-04-15T07:24:29.442Z,4.23
2023-04-15T07:27:00.826Z,4.22
2023-04-15T07:29:27.859Z,4.29
2023-04-15T07:31:54.283Z,4.37
2023-04-15T07:34:20.981Z,4.33
2023-04-15T07:36:50.577Z,4.43
2023-04-15T07:39:17.436Z,4.45
2023-04-15T07:41:44.003Z,4.43
2023-04-15T07:44:10.623Z,4.51
2023-04-15T07:46:38.350Z,4.50
2023-04-15T07:49:05.174Z,4.54
2023-04-15T07:51:32.391Z,4.51
2023-04-15T07:53:59.204Z,4.52
2023-04-15T07:56:26.577Z,4.62
2023-04-15T07:58:53.250Z,4.59
2023-04-15T08:01:19.769Z,4.61
2023-04-15T08:03:46.489Z,4.59
2023-04-15T08:06:13.059Z,4.67
2023-04-15T08:08:39.390Z,4.63
2023-04-15T08:11:06.067Z,4.66
2023-04-15T08:13:32.608Z,4.67
2023-04-15T08:16:17.726Z,4.61
2023-04-15T08:18:44.874Z,4.68
2023-04-15T08:21:11.607Z,4.72
2023-04-15T08:23:39.207Z,4.66
2023-04-15T08:26:06.112Z,4.77
2023-04-15T08:28:32.594Z,4.83
2023-04-15T08:30:59.135Z,4.79
2023-04-15T08:33:25.811Z,4.69
2023-04-15T08:35:52.314Z,4.75
2023-04-15T08:38:18.823Z,4.75
2023-04-15T08:40:46.180Z,4.74
2023-04-15T08:43:28.428Z,4.76
2023-04-15T08:45:55.779Z,4.80
2023-04-15T08:48:25.046Z,4.75
2023-04-15T08:50:52.214Z,4.80
2023-04-15T08:53:19.296Z,4.83
2023-04-15T08:55:46.710Z,4.84
2023-04-15T08:58:14.234Z,4.83
2023-04-15T09:00:41.269Z,4.90
2023-04-15T09:03:09.519Z,4.91
2023-04-15T09:05:37.853Z,4.93
2023-04-15T09:08:05.558Z,4.92
2023-04-15T09:10:33.851Z,4.94
2023-04-15T09:13:01.952Z,4.98
2023-04-15T09:15:29.764Z,5.01
2023-04-15T09:17:56.883Z,5.03
2023-04-15T09:20:23.716Z,5.11
2023-04-15T09:22:51.995Z,5.10
2023-04-15T09:25:28.641Z,5.05
2023-04-15T09:27:57.892Z,5.13
2023-04-15T09:30:24.759Z,5.16
2023-04-15T09:33:11.156Z,5.23
2023-04-15T09:35:37.581Z,5.23
2023-04-15T09:38:09.700Z,5.23
2023-04-15T09:40:40.042Z,5.21
2023-04-15T09:43:08.274Z,5.16
2023-04-15T09:45:36.409Z,5.13
2023-04-15T09:48:21.444Z,5.16
2023-04-15T09:50:51.222Z,5.16
2023-04-15T09:53:21.533Z,5.29
2023-04-15T09:55:53.008Z,5.35
2023-04-15T09:58:24.776Z,5.31
2023-04-15T10:00:52.841Z,5.22
2023-04-15T10:03:30.075Z,5.45
2023-04-15T10:06:00.287Z,5.49
2023-04-15T10:08:33.117Z,5.55
2023-04-15T10:11:01.976Z,5.60
2023-04-15T10:13:32.963Z,5.70
2023-04-15T10:16:05.159Z,5.80
2023-04-15T10:18:35.268Z,5.81
2023-04-15T10:21:01.882Z,5.77
2023-04-15T10:23:28.750Z,5.76
2023-04-15T10:25:55.361Z,5.63
2023-04-15T10:28:25.225Z,5.72
2023-04-15T10:30:53.503Z,5.86
2023-04-15T10:33:22.565Z,5.86
2023-04-15T10:35:51.601Z,6.07
2023-04-15T10:38:37.782Z,6.14
2023-04-15T10:41:19.953Z,6.36
2023-04-15T10:44:01.092Z,6.51
2023-04-15T10:46:38.700Z,6.72
2023-04-15T10:49:08.205Z,6.78
2023-04-15T10:51:41.474Z,6.94
2023-04-15T10:54:17.488Z,6.79
2023-04-15T10:56:45.400Z,6.96
2023-04-15T10:59:12.147Z,6.92
2023-04-15T11:02:01.118Z,7.13
2023-04-15T11:04:52.652Z,7.07
2023-04-15T11:07:44.008Z,6.94
2023-04-15T11:10:13.521Z,6.88
2023-04-15T11:12:41.072Z,6.79
2023-04-15T11:15:30.363Z,6.85
2023-04-15T11:17:58.239Z,6.99
2023-04-15T11:20:25.640Z,7.16
2023-04-15T11:23:08.175Z,7.16
2023-04-15T11:25:40.884Z,7.21
2023-04-15T11:28:10.163Z,7.17
2023-04-15T11:30:38.040Z,7.19
2023-04-15T11:33:06.830Z,7.21
2023-04-15T11:35:33.589Z,7.36
2023-04-15T11:38:08.644Z,7.28
2023-04-15T11:40:35.776Z,7.34
2023-04-15T11:43:05.384Z,7.20
2023-04-15T11:45:31.987Z,7.07
2023-04-15T11:48:08.914Z,7.03
2023-04-15T11:50:36.320Z,6.94
2023-04-15T11:53:08.485Z,7.08
2023-04-15T11:55:49.487Z,7.12
2023-04-15T11:58:18.806Z,6.99
2023-04-15T12:00:57.527Z,7.10
2023-04-15T12:03:28.234Z,7.03
2023-04-15T12:06:08.732Z,7.07
2023-04-15T12:08:57.058Z,7.16
2023-04-15T12:11:26.476Z,7.22
2023-04-15T12:14:28.860Z,7.24
2023-04-15T12:16:58.683Z,7.22
2023-04-15T12:19:30.311Z,7.14
2023-04-15T12:22:02.493Z,6.95
2023-04-15T12:24:32.485Z,6.97
2023-04-15T12:27:03.675Z,6.97
2023-04-15T12:29:30.922Z,6.91
2023-04-15T12:31:59.365Z,6.95
2023-04-15T12:34:27.649Z,6.84
2023-04-15T12:36:54.622Z,6.74
2023-04-15T12:39:25.550Z,6.68
2023-04-15T12:41:53.107Z,6.70
2023-04-15T12:44:19.956Z,6.62
2023-04-15T12:46:46.761Z,6.55
2023-04-15T12:49:14.754Z,6.60
2023-04-15T12:51:41.735Z,6.64
2023-04-15T12:54:08.247Z,6.61
2023-04-15T12:56:34.774Z,6.64
2023-04-15T12:59:01.380Z,6.62
2023-04-15T13:01:27.861Z,6.60
2023-04-15T13:03:54.533Z,6.59
2023-04-15T13:06:21.515Z,6.53
2023-04-15T13:08:57.431Z,6.61
2023-04-15T13:11:25.982Z,6.65
2023-04-15T13:13:52.927Z,6.66
2023-04-15T13:16:19.536Z,6.66
2023-04-15T13:18:46.131Z,6.60
2023-04-15T13:21:13.186Z,6.58
2023-04-15T13:23:41.666Z,6.53
2023-04-15T13:26:08.319Z,6.51
2023-04-15T13:28:35.190Z,6.47
2023-04-15T13:31:01.703Z,6.50
2023-04-15T13:33:28.796Z,6.53
2023-04-15T13:35:55.404Z,6.53
2023-04-15T13:38:21.809Z,6.52
2023-04-15T13:40:48.401Z,6.56
2023-04-15T13:43:14.776Z,6.58
2023-04-15T13:45:41.376Z,6.62
2023-04-15T13:48:07.735Z,6.55
2023-04-15T13:50:34.135Z,6.55
2023-04-15T13:53:00.883Z,6.53
2023-04-15T13:55:28.752Z,6.51
2023-04-15T13:57:56.772Z,6.50
2023-04-15T14:00:23.154Z,6.59
2023-04-15T14:02:49.865Z,6.55
2023-04-15T14:05:17.080Z,6.53
2023-04-15T14:07:43.470Z,6.57
2023-04-15T14:10:10.604Z,6.50
2023-04-15T14:12:37.080Z,6.47
2023-04-15T14:15:03.958Z,6.51
2023-04-15T14:17:30.629Z,6.44
2023-04-15T14:19:57.077Z,6.49
2023-04-15T14:22:23.520Z,6.51
2023-04-15T14:24:53.076Z,6.55
2023-04-15T14:27:19.623Z,6.53
2023-04-15T14:29:46.414Z,6.47
2023-04-15T14:32:13.259Z,6.55
2023-04-15T14:34:41.699Z,6.67
2023-04-15T14:37:08.253Z,6.56
2023-04-15T14:39:34.850Z,6.69
2023-04-15T14:42:01.548Z,6.57
2023-04-15T14:44:28.068Z,6.63
2023-04-15T14:46:56.138Z,6.69
2023-04-15T14:49:22.828Z,6.74
2023-04-15T14:51:49.353Z,6.76
2023-04-15T14:54:15.986Z,6.79
2023-04-15T14:56:42.586Z,6.77
2023-04-15T14:59:09.071Z,6.75
2023-04-15T15:01:35.746Z,6.73
2023-04-15T15:04:02.354Z,6.74
2023-04-15T15:06:28.893Z,6.78
2023-04-15T15:08:55.755Z,6.65
2023-04-15T15:11:22.187Z,6.69
2023-04-15T15:13:49.007Z,6.68
2023-04-15T15:16:15.506Z,6.69
2023-04-15T15:18:41.967Z,6.66
2023-04-15T15:21:08.807Z,6.71
2023-04-15T15:23:36.224Z,6.70
2023-04-15T15:26:02.767Z,6.72
2023-04-15T15:28:29.398Z,6.76
2023-04-15T15:30:56.444Z,6.81
2023-04-15T15:33:23.448Z,6.78
2023-04-15T15:35:50.991Z,6.69
2023-04-15T15:38:17.731Z,6.65
2023-04-15T15:40:44.254Z,6.65
2023-04-15T15:43:10.802Z,6.64
2023-04-15T15:45:37.352Z,6.52
2023-04-15T15:48:04.739Z,6.60
2023-04-15T15:50:31.667Z,6.62
2023-04-15T15:52:58.737Z,6.71
2023-04-15T15:55:27.119Z,6.62
2023-04-15T15:57:54.236Z,6.81
2023-04-15T16:00:21.408Z,6.80
2023-04-15T16:05:17.394Z,6.84
2023-04-15T16:07:44.003Z,6.80
2023-04-15T16:10:11.064Z,6.82
2023-04-15T16:12:37.625Z,6.87
2023-04-15T16:15:04.457Z,6.98
2023-04-15T16:17:31.055Z,6.94
2023-04-15T16:20:00.849Z,6.92
2023-04-15T16:22:27.757Z,6.91
2023-04-15T16:24:54.603Z,6.92
2023-04-15T16:27:21.027Z,6.93
2023-04-15T16:29:47.693Z,7.00
2023-04-15T16:32:14.110Z,7.06
2023-04-15T16:34:41.337Z,7.08
2023-04-15T16:37:08.085Z,7.10
2023-04-15T16:39:34.756Z,6.94
2023-04-15T16:42:02.573Z,6.99
2023-04-15T16:44:29.329Z,7.03
2023-04-15T16:46:56.677Z,6.94
2023-04-15T16:49:23.184Z,7.01
2023-04-15T16:51:51.409Z,6.93
2023-04-15T16:54:19.258Z,6.89
2023-04-15T16:56:45.760Z,6.85
2023-04-15T16:59:12.913Z,6.76
2023-04-15T17:01:39.701Z,6.80
2023-04-15T17:04:07.188Z,6.86
2023-04-15T17:06:33.805Z,6.82
2023-04-15T17:09:00.211Z,6.79
2023-04-15T17:11:27.891Z,6.80
2023-04-15T17:13:54.347Z,6.80
2023-04-15T17:16:20.848Z,6.77
2023-04-15T17:18:47.483Z,6.78
2023-04-15T17:21:15.169Z,6.76
2023-04-15T17:23:41.640Z,6.69
2023-04-15T17:26:08.546Z,6.78
2023-04-15T17:28:34.932Z,6.69
2023-04-15T17:31:01.393Z,6.60
2023-04-15T17:33:55.278Z,6.53
2023-04-15T17:36:14.607Z,6.48
2023-04-15T17:38:41.069Z,6.47
2023-04-15T17:41:07.898Z,6.47
2023-04-15T17:43:34.337Z,6.50
2023-04-15T17:46:00.789Z,6.49
2023-04-15T17:48:27.436Z,6.45
2023-04-15T17:50:53.939Z,6.44
2023-04-15T17:53:20.304Z,6.41
2023-04-15T17:55:47.035Z,6.39
2023-04-15T17:58:13.553Z,6.35
2023-04-15T18:00:40.051Z,6.41
2023-04-15T18:03:06.763Z,6.41
2023-04-15T18:05:33.702Z,6.40
2023-04-15T18:08:00.146Z,6.44
2023-04-15T18:10:26.714Z,6.47
2023-04-15T18:12:53.106Z,6.48
2023-04-15T18:15:19.575Z,6.42
2023-04-15T18:17:46.301Z,6.38
2023-04-15T18:20:12.909Z,6.37
2023-04-15T18:22:39.546Z,6.37
2023-04-15T18:25:06.780Z,6.24
2023-04-15T18:27:34.260Z,6.26
2023-04-15T18:30:00.858Z,6.21
2023-04-15T18:32:31.646Z,6.14
2023-04-15T18:34:58.656Z,6.14
2023-04-15T18:37:26.761Z,6.20
2023-04-15T18:39:54.094Z,6.16
2023-04-15T18:42:23.421Z,6.14
2023-04-15T18:44:50.462Z,6.10
2023-04-15T18:47:17.152Z,6.20
2023-04-15T18:49:43.595Z,6.16
2023-04-15T18:52:10.846Z,6.15
2023-04-15T18:54:37.933Z,6.21
2023-04-15T18:57:04.474Z,6.20
2023-04-15T18:59:31.633Z,6.25
2023-04-15T19:01:59.788Z,6.22
2023-04-15T19:04:26.674Z,6.25
2023-04-15T19:06:53.136Z,6.25
2023-04-15T19:09:19.562Z,6.22
2023-04-15T19:11:46.025Z,6.20
2023-04-15T19:14:12.466Z,6.19
2023-04-15T19:16:38.934Z,6.13
2023-04-15T19:19:06.599Z,6.11
2023-04-15T19:21:33.517Z,6.09
2023-04-15T19:24:00.757Z,6.09
2023-04-15T19:26:27.359Z,6.12
2023-04-15T19:28:53.885Z,6.15
2023-04-15T19:31:20.755Z,6.12
2023-04-15T19:33:47.427Z,6.16
2023-04-15T19:36:13.914Z,6.12
2023-04-15T19:38:40.725Z,6.08
2023-04-15T19:41:07.284Z,6.06
2023-04-15T19:43:33.801Z,6.09
2023-04-15T19:46:00.537Z,6.04
2023-04-15T19:48:27.055Z,6.11
2023-04-15T19:50:53.698Z,6.11
2023-04-15T19:53:20.154Z,6.09
2023-04-15T19:55:48.331Z,6.12
2023-04-15T19:58:14.848Z,6.10
2023-04-15T20:00:41.987Z,6.09
2023-04-15T20:03:08.560Z,6.05
2023-04-15T20:05:35.825Z,6.10
2023-04-15T20:08:02.503Z,6.11
2023-04-15T20:10:31.447Z,6.17
2023-04-15T20:12:58.080Z,6.09
2023-04-15T20:15:24.839Z,6.14
2023-04-15T20:17:51.391Z,6.08
2023-04-15T20:20:18.262Z,6.07
2023-04-15T20:22:45.284Z,6.02
2023-04-15T20:25:11.817Z,6.06
2023-04-15T20:27:38.346Z,6.06
2023-04-15T20:30:05.399Z,6.01
2023-04-15T20:32:35.886Z,6.04
2023-04-15T20:35:04.294Z,6.06
2023-04-15T20:37:33.316Z,6.10
2023-04-15T20:40:01.221Z,6.09
2023-04-15T20:42:27.945Z,6.08
2023-04-15T20:44:54.593Z,6.01
2023-04-15T20:47:21.171Z,6.00
2023-04-15T20:49:47.797Z,5.97
2023-04-15T20:52:14.330Z,6.06
2023-04-15T20:54:40.812Z,6.01
2023-04-15T20:57:07.342Z,6.01
2023-04-15T20:59:34.831Z,5.98
2023-04-15T21:02:01.839Z,5.99
2023-04-15T21:04:28.377Z,6.00
2023-04-15T21:06:54.960Z,5.92
2023-04-15T21:09:21.540Z,5.90
2023-04-15T21:14:19.131Z,5.87
2023-04-15T21:16:46.220Z,5.79
2023-04-15T21:19:12.821Z,5.81
2023-04-15T21:21:39.395Z,5.87
2023-04-15T21:24:07.750Z,5.87
2023-04-15T21:26:35.929Z,5.95
2023-04-15T21:29:03.034Z,5.94
2023-04-15T21:31:30.505Z,5.97
2023-04-15T21:33:57.184Z,5.95
2023-04-15T21:36:23.614Z,5.90
2023-04-15T21:38:50.362Z,5.84
2023-04-15T21:41:16.819Z,5.88
2023-04-15T21:43:43.283Z,5.91
2023-04-15T21:46:23.724Z,5.89
2023-04-15T21:48:54.238Z,5.85
2023-04-15T21:51:20.765Z,5.87
2023-04-15T21:53:47.538Z,5.87
2023-04-15T21:56:14.163Z,5.89
2023-04-15T21:58:40.809Z,5.89
2023-04-15T22:01:07.398Z,5.83
2023-04-15T22:03:35.115Z,5.84
2023-04-15T22:06:05.198Z,5.88
2023-04-15T22:08:38.583Z,5.87
2023-04-15T22:11:08.698Z,5.90
2023-04-15T22:13:35.725Z,5.90
2023-04-15T22:16:02.670Z,5.95
2023-04-15T22:18:29.194Z,5.99
2023-04-15T22:20:56.288Z,5.95
2023-04-15T22:23:22.713Z,5.93
2023-04-15T22:25:49.252Z,5.91
2023-04-15T22:28:15.588Z,5.90
2023-04-15T22:30:42.587Z,5.94
2023-04-15T22:33:10.271Z,5.95
2023-04-15T22:35:37.305Z,5.91
2023-04-15T22:38:04.924Z,5.90
2023-04-15T22:40:31.580Z,5.91
2023-04-15T22:42:58.160Z,5.95
2023-04-15T22:45:24.894Z,5.88
2023-04-15T22:47:51.401Z,5.93
2023-04-15T22:50:18.185Z,5.95
2023-04-15T22:52:46.619Z,5.88
2023-04-15T22:55:13.194Z,5.87
2023-04-15T22:57:39.729Z,5.88
2023-04-15T23:00:07.456Z,5.92
2023-04-15T23:02:34.764Z,5.94
2023-04-15T23:05:02.324Z,5.91
2023-04-15T23:07:31.204Z,5.92
2023-04-15T23:09:57.948Z,5.88
2023-04-15T23:12:24.409Z,5.92
2023-04-15T23:14:50.921Z,5.90
2023-04-15T23:17:17.352Z,5.89
2023-04-15T23:19:43.813Z,5.89
2023-04-15T23:22:13.032Z,5.88
2023-04-15T23:24:39.582Z,5.85
2023-04-15T23:27:06.075Z,5.84
2023-04-15T23:29:32.459Z,5.91
2023-04-15T23:31:58.967Z,5.91
2023-04-15T23:34:25.475Z,5.81
2023-04-15T23:36:51.881Z,5.83
2023-04-15T23:39:18.251Z,5.84
2023-04-15T23:41:44.682Z,5.83
2023-04-15T23:44:11.144Z,5.80
2023-04-15T23:46:37.684Z,5.85
2023-04-15T23:49:04.159Z,5.86
2023-04-15T23:51:30.594Z,5.88
2023-04-15T23:53:56.996Z,5.92
2023-04-15T23:56:23.625Z,5.87
2023-04-15T23:58:50.234Z,5.91
